createdAt,value
2019-04-05T00:01:46.046Z,10.70
2019-04-05T00:04:15.117Z,10.70
2019-04-05T00:06:44.273Z,10.73
2019-04-05T00:09:13.361Z,10.74
2019-04-05T00:11:42.499Z,10.77
2019-04-05T00:14:11.583Z,10.77
2019-04-05T00:16:40.762Z,10.80
2019-04-05T00:19:09.889Z,10.82
2019-04-05T00:21:39.061Z,10.84
2019-04-05T00:24:08.150Z,10.84
2019-04-05T00:26:37.307Z,10.84
2019-04-05T00:29:06.434Z,10.85
2019-04-05T00:31:35.645Z,10.86
2019-04-05T00:34:04.775Z,10.88
2019-04-05T00:36:33.893Z,10.88
2019-04-05T00:39:03.011Z,10.89
2019-04-05T00:41:33.120Z,10.90
2019-04-05T00:44:02.402Z,10.91
2019-04-05T00:46:31.541Z,10.91
2019-04-05T00:49:00.690Z,10.91
2019-04-05T00:51:29.799Z,10.94
2019-04-05T00:53:58.941Z,10.94
2019-04-05T00:56:28.163Z,10.95
2019-04-05T00:58:57.383Z,10.94
2019-04-05T01:01:26.508Z,10.95
2019-04-05T01:03:55.631Z,10.97
2019-04-05T01:06:24.779Z,10.97
2019-04-05T01:08:53.928Z,10.97
2019-04-05T01:11:23.073Z,10.98
2019-04-05T01:13:52.609Z,10.98
2019-04-05T01:16:21.747Z,11.00
2019-04-05T01:18:50.889Z,10.98
2019-04-05T01:21:21.206Z,10.99
2019-04-05T01:23:50.376Z,11.00
2019-04-05T01:26:19.746Z,10.98
2019-04-05T01:28:48.866Z,10.97
2019-04-05T01:31:17.995Z,10.97
2019-04-05T01:33:47.428Z,10.98
2019-04-05T01:36:16.553Z,10.98
2019-04-05T01:38:45.705Z,11.00
2019-04-05T01:41:14.822Z,10.99
2019-04-05T01:43:43.930Z,10.98
2019-04-05T01:46:13.172Z,10.96
2019-04-05T01:48:42.299Z,10.96
2019-04-05T01:51:11.431Z,10.90
2019-04-05T01:53:40.585Z,10.87
2019-04-05T01:56:09.706Z,10.88
2019-04-05T01:58:38.809Z,10.89
2019-04-05T02:01:07.980Z,10.88
2019-04-05T02:03:37.109Z,10.90
2019-04-05T02:06:06.240Z,10.91
2019-04-05T02:08:35.545Z,10.95
2019-04-05T02:11:04.677Z,10.96
2019-04-05T02:13:33.825Z,10.96
2019-04-05T02:16:06.447Z,10.98
2019-04-05T02:18:33.831Z,10.99
2019-04-05T02:21:02.946Z,11.01
2019-04-05T02:23:32.114Z,11.02
2019-04-05T02:26:01.184Z,11.03
2019-04-05T02:28:30.307Z,11.02
2019-04-05T02:30:59.469Z,11.03
2019-04-05T02:33:28.597Z,11.02
2019-04-05T02:35:57.793Z,11.01
2019-04-05T02:38:27.000Z,11.00
2019-04-05T02:40:58.614Z,11.00
2019-04-05T02:43:27.066Z,10.99
2019-04-05T02:45:56.181Z,10.98
2019-04-05T02:48:25.444Z,11.00
2019-04-05T02:50:56.468Z,10.97
2019-04-05T02:53:25.561Z,10.98
2019-04-05T02:55:54.698Z,10.94
2019-04-05T02:58:23.842Z,10.95
2019-04-05T03:00:52.966Z,10.96
2019-04-05T03:03:22.124Z,10.95
2019-04-05T03:05:51.195Z,10.97
2019-04-05T03:08:20.296Z,10.96
2019-04-05T03:11:00.066Z,10.98
2019-04-05T03:13:29.207Z,10.98
2019-04-05T03:16:01.918Z,10.97
2019-04-05T03:18:31.080Z,10.99
2019-04-05T03:21:02.738Z,10.96
2019-04-05T03:23:31.859Z,10.92
2019-04-05T03:26:01.698Z,10.92
2019-04-05T03:28:30.861Z,10.91
2019-04-05T03:31:00.010Z,10.90
2019-04-05T03:33:29.143Z,10.90
2019-04-05T03:35:58.292Z,10.90
2019-04-05T03:38:27.442Z,10.90
2019-04-05T03:40:56.626Z,10.87
2019-04-05T03:43:25.813Z,10.88
2019-04-05T03:45:54.947Z,10.88
2019-04-05T03:48:24.129Z,10.89
2019-04-05T03:50:53.303Z,10.91
2019-04-05T03:53:22.445Z,10.93
2019-04-05T03:55:51.560Z,10.94
2019-04-05T03:58:20.695Z,10.96
2019-04-05T04:00:49.813Z,10.98
2019-04-05T04:03:19.079Z,11.00
2019-04-05T04:05:48.180Z,11.00
2019-04-05T04:08:17.358Z,11.00
2019-04-05T04:10:47.068Z,11.01
2019-04-05T04:13:16.281Z,11.00
2019-04-05T04:15:45.481Z,11.01
2019-04-05T04:18:14.589Z,11.02
2019-04-05T04:20:47.174Z,11.02
2019-04-05T04:23:16.292Z,11.03
2019-04-05T04:25:45.569Z,11.04
2019-04-05T04:28:14.634Z,11.04
2019-04-05T04:30:43.750Z,11.05
2019-04-05T04:33:12.902Z,11.03
2019-04-05T04:35:42.428Z,11.03
2019-04-05T04:38:11.592Z,11.03
2019-04-05T04:40:40.746Z,11.00
2019-04-05T04:43:09.952Z,11.02
2019-04-05T04:45:39.195Z,11.01
2019-04-05T04:48:08.496Z,11.02
2019-04-05T04:50:37.805Z,11.00
2019-04-05T04:53:07.038Z,10.92
2019-04-05T04:55:36.565Z,10.92
2019-04-05T04:58:05.868Z,10.86
2019-04-05T05:00:35.108Z,10.83
2019-04-05T05:03:07.311Z,10.83
2019-04-05T05:05:36.516Z,10.82
2019-04-05T05:08:05.691Z,10.84
2019-04-05T05:10:34.890Z,10.83
2019-04-05T05:13:04.037Z,10.82
2019-04-05T05:15:33.373Z,10.84
2019-04-05T05:18:02.550Z,10.86
2019-04-05T05:20:31.765Z,10.89
2019-04-05T05:23:00.990Z,10.94
2019-04-05T05:25:30.304Z,10.96
2019-04-05T05:27:59.483Z,10.98
2019-04-05T05:30:28.901Z,10.97
2019-04-05T05:32:58.141Z,10.93
2019-04-05T05:35:27.828Z,10.95
2019-04-05T05:37:57.003Z,10.98
2019-04-05T05:40:34.752Z,11.01
2019-04-05T05:42:57.305Z,11.01
2019-04-05T05:45:26.521Z,11.00
2019-04-05T05:47:55.752Z,11.03
2019-04-05T05:50:24.967Z,11.05
2019-04-05T05:52:54.253Z,11.09
2019-04-05T05:55:23.441Z,11.13
2019-04-05T05:57:54.883Z,11.14
2019-04-05T06:00:24.645Z,11.16
2019-04-05T06:02:53.861Z,11.16
2019-04-05T06:05:23.166Z,11.16
2019-04-05T06:07:52.488Z,11.19
2019-04-05T06:10:21.756Z,11.23
2019-04-05T06:12:50.941Z,11.31
2019-04-05T06:15:20.234Z,11.38
2019-04-05T06:18:04.569Z,11.47
2019-04-05T06:20:28.383Z,11.54
2019-04-05T06:22:57.703Z,11.57
2019-04-05T06:25:27.075Z,11.62
2019-04-05T06:27:59.654Z,11.68
2019-04-05T06:30:28.925Z,11.70
2019-04-05T06:32:58.410Z,11.75
2019-04-05T06:35:27.631Z,11.80
2019-04-05T06:37:56.953Z,11.87
2019-04-05T06:40:39.576Z,11.98
2019-04-05T06:42:57.586Z,12.00
2019-04-05T06:45:27.094Z,12.06
2019-04-05T06:47:56.434Z,12.14
2019-04-05T06:50:26.585Z,12.18
2019-04-05T06:52:56.116Z,12.25
2019-04-05T06:55:25.377Z,12.25
2019-04-05T06:57:55.070Z,12.30
2019-04-05T07:00:30.461Z,12.31
2019-04-05T07:03:00.123Z,12.30
2019-04-05T07:05:29.301Z,12.27
2019-04-05T07:07:58.527Z,12.20
2019-04-05T07:10:35.430Z,12.15
2019-04-05T07:13:05.075Z,12.22
2019-04-05T07:15:34.583Z,12.27
2019-04-05T07:18:03.964Z,12.32
2019-04-05T07:20:33.159Z,12.38
2019-04-05T07:23:02.364Z,12.46
2019-04-05T07:26:02.040Z,12.55
2019-04-05T07:28:31.399Z,12.63
2019-04-05T07:31:00.619Z,12.73
2019-04-05T07:33:29.953Z,12.72
2019-04-05T07:36:38.883Z,12.76
2019-04-05T07:39:19.392Z,12.82
2019-04-05T07:41:47.987Z,12.87
2019-04-05T07:44:17.147Z,12.91
2019-04-05T07:46:46.801Z,12.99
2019-04-05T07:49:16.125Z,12.97
2019-04-05T07:51:45.339Z,12.96
2019-04-05T07:54:14.590Z,12.92
2019-04-05T07:56:46.120Z,12.91
2019-04-05T07:59:23.866Z,12.98
2019-04-05T08:01:53.170Z,13.04
2019-04-05T08:04:22.365Z,13.05
2019-04-05T08:06:51.604Z,13.03
2019-04-05T08:09:20.766Z,13.03
2019-04-05T08:11:50.044Z,13.06
2019-04-05T08:14:19.355Z,13.10
2019-04-05T08:16:50.775Z,13.14
2019-04-05T08:19:19.935Z,13.15
2019-04-05T08:21:49.296Z,13.13
2019-04-05T08:24:18.916Z,13.10
2019-04-05T08:26:48.188Z,13.01
2019-04-05T08:29:17.394Z,12.99
2019-04-05T08:31:46.675Z,12.94
2019-04-05T08:34:16.007Z,13.01
2019-04-05T08:36:45.266Z,13.19
2019-04-05T08:39:14.469Z,13.37
2019-04-05T08:41:43.661Z,13.46
2019-04-05T08:44:13.199Z,13.42
2019-04-05T08:46:42.792Z,13.36
2019-04-05T08:49:12.122Z,13.36
2019-04-05T08:51:41.363Z,13.33
2019-04-05T08:54:10.984Z,13.40
2019-04-05T08:56:40.272Z,13.41
2019-04-05T08:59:09.525Z,13.46
2019-04-05T09:01:38.851Z,13.50
2019-04-05T09:04:08.048Z,13.56
2019-04-05T09:06:37.310Z,13.51
2019-04-05T09:09:08.035Z,13.47
2019-04-05T09:11:37.317Z,13.47
2019-04-05T09:14:06.596Z,13.40
2019-04-05T09:16:35.849Z,13.30
2019-04-05T09:19:05.018Z,13.23
2019-04-05T09:21:34.134Z,13.17
2019-04-05T09:24:03.386Z,13.25
2019-04-05T09:26:32.680Z,13.29
2019-04-05T09:29:02.413Z,13.32
2019-04-05T09:31:31.639Z,13.39
2019-04-05T09:34:00.982Z,13.47
2019-04-05T09:36:30.180Z,13.52
2019-04-05T09:38:59.431Z,13.65
2019-04-05T09:41:28.683Z,13.88
2019-04-05T09:43:57.935Z,14.09
2019-04-05T09:46:27.391Z,14.30
2019-04-05T09:48:56.757Z,14.43
2019-04-05T09:51:26.084Z,14.65
2019-04-05T09:53:55.462Z,15.03
2019-04-05T09:56:24.807Z,15.33
2019-04-05T09:58:54.106Z,15.69
2019-04-05T10:01:23.383Z,16.22
2019-04-05T10:03:52.806Z,16.51
2019-04-05T10:06:22.139Z,16.60
2019-04-05T10:08:51.386Z,16.75
2019-04-05T10:11:20.559Z,17.06
2019-04-05T10:13:49.823Z,17.36
2019-04-05T10:16:19.139Z,17.67
2019-04-05T10:18:51.327Z,17.82
2019-04-05T10:21:19.387Z,17.96
2019-04-05T10:23:48.630Z,18.12
2019-04-05T10:26:18.026Z,18.25
2019-04-05T10:28:47.228Z,18.36
2019-04-05T10:31:16.428Z,18.29
2019-04-05T10:33:45.710Z,17.77
2019-04-05T10:36:14.965Z,17.39
2019-04-05T10:38:44.271Z,17.03
2019-04-05T10:41:13.542Z,16.74
2019-04-05T10:43:42.858Z,16.61
2019-04-05T10:46:12.363Z,16.42
2019-04-05T10:48:41.601Z,16.32
2019-04-05T10:51:11.067Z,16.17
2019-04-05T10:53:40.842Z,16.07
2019-04-05T10:56:10.134Z,16.04
2019-04-05T10:58:39.402Z,16.05
2019-04-05T11:01:08.678Z,15.91
2019-04-05T11:03:37.908Z,15.94
2019-04-05T11:06:07.247Z,16.06
2019-04-05T11:08:36.528Z,16.11
2019-04-05T11:11:05.737Z,16.09
2019-04-05T11:13:34.947Z,16.10
2019-04-05T11:16:04.778Z,16.03
2019-04-05T11:18:34.011Z,15.95
2019-04-05T11:21:03.316Z,15.94
2019-04-05T11:23:32.430Z,15.98
2019-04-05T11:26:01.607Z,15.98
2019-04-05T11:28:30.778Z,15.93
2019-04-05T11:31:00.065Z,15.83
2019-04-05T11:33:29.169Z,15.79
2019-04-05T11:35:58.753Z,15.80
2019-04-05T11:38:27.958Z,15.76
2019-04-05T11:40:57.260Z,15.74
2019-04-05T11:43:28.087Z,15.69
2019-04-05T11:45:57.601Z,15.68
2019-04-05T11:48:30.067Z,15.64
2019-04-05T11:50:58.478Z,15.57
2019-04-05T11:53:27.593Z,15.53
2019-04-05T11:55:56.720Z,15.49
2019-04-05T11:58:25.845Z,15.53
2019-04-05T12:00:58.257Z,15.44
2019-04-05T12:03:28.506Z,15.45
2019-04-05T12:05:57.748Z,15.40
2019-04-05T12:08:26.969Z,15.30
2019-04-05T12:10:56.166Z,15.28
2019-04-05T12:13:25.364Z,15.27
2019-04-05T12:15:54.518Z,15.20
2019-04-05T12:18:23.630Z,15.13
2019-04-05T12:20:59.955Z,15.05
2019-04-05T12:23:23.710Z,14.91
2019-04-05T12:25:54.571Z,14.84
2019-04-05T12:28:23.744Z,14.76
2019-04-05T12:30:52.911Z,14.65
2019-04-05T12:33:22.121Z,14.50
2019-04-05T12:35:52.550Z,14.55
2019-04-05T12:38:32.455Z,14.58
2019-04-05T12:41:03.049Z,14.65
2019-04-05T12:43:32.544Z,14.67
2019-04-05T12:46:01.705Z,14.68
2019-04-05T12:48:30.858Z,14.51
2019-04-05T12:51:01.341Z,14.61
2019-04-05T12:53:31.074Z,14.66
2019-04-05T12:56:00.297Z,14.66
2019-04-05T12:58:32.465Z,14.64
2019-04-05T13:01:00.207Z,14.56
2019-04-05T13:03:29.345Z,14.58
2019-04-05T13:05:58.527Z,14.54
2019-04-05T13:08:27.670Z,14.49
2019-04-05T13:10:57.010Z,14.55
2019-04-05T13:13:27.508Z,14.55
2019-04-05T13:15:59.362Z,14.46
2019-04-05T13:18:30.619Z,14.40
2019-04-05T13:21:00.332Z,14.42
2019-04-05T13:23:29.551Z,14.47
2019-04-05T13:25:58.758Z,14.50
2019-04-05T13:28:28.003Z,14.44
2019-04-05T13:30:57.266Z,14.35
2019-04-05T13:33:28.872Z,14.35
2019-04-05T13:35:57.290Z,14.31
2019-04-05T13:38:26.474Z,14.20
2019-04-05T13:40:56.949Z,14.13
2019-04-05T13:43:26.253Z,14.16
2019-04-05T13:45:55.356Z,14.15
2019-04-05T13:48:24.552Z,14.12
2019-04-05T13:50:53.719Z,14.14
2019-04-05T13:53:22.847Z,14.16
2019-04-05T13:55:52.048Z,14.19
2019-04-05T13:58:21.139Z,14.21
2019-04-05T14:00:50.262Z,14.24
2019-04-05T14:03:20.903Z,14.27
2019-04-05T14:05:54.055Z,14.28
2019-04-05T14:08:21.084Z,14.33
2019-04-05T14:10:50.245Z,14.34
2019-04-05T14:13:19.428Z,14.34
2019-04-05T14:15:48.746Z,14.33
2019-04-05T14:18:20.583Z,14.27
2019-04-05T14:20:49.963Z,14.24
2019-04-05T14:23:23.264Z,14.23
2019-04-05T14:25:50.541Z,14.26
2019-04-05T14:28:19.674Z,14.27
2019-04-05T14:30:48.852Z,14.28
2019-04-05T14:33:18.045Z,14.29
2019-04-05T14:35:47.202Z,14.22
2019-04-05T14:38:16.490Z,14.23
2019-04-05T14:40:45.651Z,14.28
2019-04-05T14:43:15.624Z,14.26
2019-04-05T14:45:44.843Z,14.26
2019-04-05T14:48:14.004Z,14.24
2019-04-05T14:50:43.115Z,14.24
2019-04-05T14:53:12.369Z,14.21
2019-04-05T14:55:41.449Z,14.11
2019-04-05T14:58:10.890Z,14.11
2019-04-05T15:00:40.235Z,14.07
2019-04-05T15:03:09.437Z,14.03
2019-04-05T15:05:38.656Z,13.98
2019-04-05T15:08:07.949Z,14.02
2019-04-05T15:10:37.185Z,13.92
2019-04-05T15:13:06.299Z,13.95
2019-04-05T15:15:35.469Z,13.97
2019-04-05T15:18:04.634Z,13.94
2019-04-05T15:20:34.775Z,14.00
2019-04-05T15:23:04.615Z,14.01
2019-04-05T15:25:34.115Z,13.95
2019-04-05T15:28:03.269Z,13.99
2019-04-05T15:30:32.447Z,13.98
2019-04-05T15:33:04.653Z,13.92
2019-04-05T15:35:33.753Z,13.90
2019-04-05T15:38:03.072Z,13.88
2019-04-05T15:40:32.199Z,13.77
2019-04-05T15:43:01.429Z,13.71
2019-04-05T15:45:30.570Z,13.68
2019-04-05T15:47:59.714Z,13.61
2019-04-05T15:50:28.828Z,13.53
2019-04-05T15:53:02.285Z,13.42
2019-04-05T15:55:33.367Z,13.41
2019-04-05T15:58:03.797Z,13.39
2019-04-05T16:00:41.426Z,13.39
2019-04-05T16:03:10.571Z,13.42
2019-04-05T16:05:39.726Z,13.41
2019-04-05T16:08:09.046Z,13.38
2019-04-05T16:10:38.214Z,13.42
2019-04-05T16:13:08.149Z,13.33
2019-04-05T16:15:37.757Z,13.23
2019-04-05T16:18:06.956Z,13.22
2019-04-05T16:20:36.138Z,13.17
2019-04-05T16:23:05.367Z,13.12
2019-04-05T16:25:35.104Z,13.10
2019-04-05T16:28:04.286Z,13.03
2019-04-05T16:30:33.849Z,13.02
2019-04-05T16:33:03.143Z,13.04
2019-04-05T16:35:32.713Z,13.10
2019-04-05T16:38:01.883Z,13.08
2019-04-05T16:40:31.523Z,13.08
2019-04-05T16:43:02.643Z,13.15
2019-04-05T16:45:32.723Z,13.15
2019-04-05T16:48:03.269Z,13.21
2019-04-05T16:50:32.605Z,13.22
2019-04-05T16:53:01.954Z,13.23
2019-04-05T16:55:31.209Z,13.22
2019-04-05T16:58:00.298Z,13.25
2019-04-05T17:00:29.483Z,13.28
2019-04-05T17:02:58.634Z,13.25
2019-04-05T17:05:27.755Z,13.24
2019-04-05T17:07:56.930Z,13.20
2019-04-05T17:10:26.193Z,13.15
2019-04-05T17:12:55.333Z,12.44
2019-04-05T17:15:24.532Z,13.06
2019-04-05T17:17:53.660Z,13.04
2019-04-05T17:20:23.379Z,13.06
2019-04-05T17:22:58.344Z,13.06
2019-04-05T17:25:23.421Z,13.01
2019-04-05T17:27:52.623Z,13.02
2019-04-05T17:30:21.844Z,12.99
2019-04-05T17:32:51.014Z,12.97
2019-04-05T17:35:20.816Z,12.95
2019-04-05T17:37:50.205Z,12.94
2019-04-05T17:40:19.552Z,12.88
2019-04-05T17:42:48.767Z,12.88
2019-04-05T17:45:18.820Z,12.76
2019-04-05T17:47:47.975Z,12.76
2019-04-05T17:53:12.079Z,12.69
2019-04-05T17:55:33.602Z,12.66
2019-04-05T17:58:03.956Z,12.62
2019-04-05T18:00:33.274Z,12.62
2019-04-05T18:03:02.441Z,12.63
2019-04-05T18:05:31.624Z,12.61
2019-04-05T18:08:00.886Z,12.62
2019-04-05T18:10:30.097Z,12.56
2019-04-05T18:12:59.340Z,12.57
2019-04-05T18:15:28.535Z,12.59
2019-04-05T18:17:57.785Z,12.57
2019-04-05T18:20:26.993Z,12.57
2019-04-05T18:22:56.218Z,12.58
2019-04-05T18:25:25.380Z,12.59
2019-04-05T18:27:54.562Z,12.50
2019-04-05T18:30:23.772Z,12.50
2019-04-05T18:32:53.087Z,12.56
2019-04-05T18:35:22.332Z,12.59
2019-04-05T18:37:51.696Z,12.56
2019-04-05T18:40:21.213Z,12.49
2019-04-05T18:42:50.555Z,12.47
2019-04-05T18:45:20.388Z,12.52
2019-04-05T18:47:49.750Z,12.56
2019-04-05T18:50:19.114Z,12.57
2019-04-05T18:52:48.564Z,12.62
2019-04-05T18:55:18.046Z,12.63
2019-04-05T18:57:47.651Z,12.63
2019-04-05T19:00:16.889Z,12.66
2019-04-05T19:02:46.665Z,12.68
2019-04-05T19:05:16.285Z,12.59
2019-04-05T19:07:45.962Z,12.57
2019-04-05T19:10:15.391Z,12.60
2019-04-05T19:12:46.661Z,12.63
2019-04-05T19:15:16.309Z,12.64
2019-04-05T19:17:45.742Z,12.64
2019-04-05T19:20:15.354Z,12.67
2019-04-05T19:22:44.783Z,12.61
2019-04-05T19:25:14.176Z,12.63
2019-04-05T19:27:43.662Z,12.62
2019-04-05T19:50:28.282Z,12.57
2019-04-05T19:52:57.856Z,12.56
2019-04-05T19:55:27.389Z,12.55
2019-04-05T19:57:56.867Z,12.55
2019-04-05T20:00:26.342Z,12.55
2019-04-05T20:02:55.748Z,12.56
2019-04-05T20:05:27.628Z,12.57
2019-04-05T20:08:02.193Z,12.56
2019-04-05T20:10:38.166Z,12.58
2019-04-05T20:13:07.777Z,12.58
2019-04-05T20:15:37.347Z,12.57
2019-04-05T20:18:06.972Z,12.60
2019-04-05T20:20:37.494Z,12.55
2019-04-05T20:23:07.040Z,12.55
2019-04-05T20:25:37.450Z,12.58
2019-04-05T20:28:07.387Z,12.61
2019-04-05T20:30:37.048Z,12.66
2019-04-05T20:33:06.828Z,12.69
2019-04-05T20:35:36.554Z,12.71
2019-04-05T20:38:06.230Z,12.73
2019-04-05T20:40:36.568Z,12.75
2019-04-05T20:43:06.074Z,12.75
2019-04-05T20:45:35.643Z,12.75
2019-04-05T20:48:05.151Z,12.77
2019-04-05T20:50:34.694Z,12.75
2019-04-05T20:53:04.231Z,12.73
2019-04-05T20:55:33.943Z,12.74
2019-04-05T20:58:03.579Z,12.75
2019-04-05T21:00:35.007Z,12.75
2019-04-05T21:03:04.538Z,12.80
2019-04-05T21:05:34.118Z,12.81
2019-04-05T21:08:04.343Z,12.78
2019-04-05T21:10:33.981Z,12.77
2019-04-05T21:13:03.653Z,12.78
2019-04-05T21:15:33.434Z,12.78
2019-04-05T21:18:06.905Z,12.76
2019-04-05T21:20:36.445Z,12.79
2019-04-05T21:23:06.147Z,12.79
2019-04-05T21:25:35.963Z,12.82
2019-04-05T21:28:05.527Z,12.80
2019-04-05T21:30:35.474Z,12.85
2019-04-05T21:33:05.189Z,12.85
2019-04-05T21:35:34.965Z,12.84
2019-04-05T21:38:05.618Z,12.81
2019-04-05T21:40:35.249Z,12.77
2019-04-05T21:43:05.798Z,12.78
2019-04-05T21:46:00.824Z,12.79
2019-04-05T21:48:30.682Z,12.81
2019-04-05T21:51:00.130Z,12.82
2019-04-05T21:53:29.356Z,12.76
2019-04-05T21:55:58.626Z,12.77
2019-04-05T21:58:27.862Z,12.76
2019-04-05T22:01:01.630Z,12.74
2019-04-05T22:03:31.180Z,12.72
2019-04-05T22:06:00.416Z,12.68
2019-04-05T22:08:29.618Z,12.71
2019-04-05T22:10:58.870Z,12.73
2019-04-05T22:13:28.032Z,12.73
2019-04-05T22:15:57.258Z,12.71
2019-04-05T22:18:26.479Z,12.75
2019-04-05T22:20:55.812Z,12.73
2019-04-05T22:23:25.043Z,12.75
2019-04-05T22:25:54.177Z,12.75
2019-04-05T22:28:23.362Z,12.74
2019-04-05T22:30:52.555Z,12.76
2019-04-05T22:33:21.849Z,12.74
2019-04-05T22:35:51.120Z,12.77
2019-04-05T22:38:20.299Z,12.80
2019-04-05T22:40:49.457Z,12.81
2019-04-05T22:43:18.661Z,12.78
2019-04-05T22:45:47.818Z,12.82
2019-04-05T22:48:16.989Z,12.83
2019-04-05T22:50:46.181Z,12.83
2019-04-05T22:53:15.414Z,12.82
2019-04-05T22:55:44.571Z,12.82
2019-04-05T22:58:13.890Z,12.84
2019-04-05T23:00:43.097Z,12.85
2019-04-05T23:03:12.372Z,12.86
2019-04-05T23:05:41.638Z,12.82
2019-04-05T23:08:10.892Z,12.83
2019-04-05T23:10:40.094Z,12.85
2019-04-05T23:13:10.182Z,12.83
2019-04-05T23:15:39.439Z,12.85
2019-04-05T23:18:08.647Z,12.87
2019-04-05T23:20:37.879Z,12.88
2019-04-05T23:23:07.079Z,12.87
2019-04-05T23:25:36.365Z,12.86
2019-04-05T23:28:05.624Z,12.86
2019-04-05T23:30:34.861Z,12.88
2019-04-05T23:33:04.077Z,12.91
2019-04-05T23:35:33.424Z,12.89
2019-04-05T23:38:02.850Z,12.90
2019-04-05T23:40:33.660Z,12.89
2019-04-05T23:43:03.519Z,12.92
2019-04-05T23:45:33.320Z,12.94
2019-04-05T23:48:03.048Z,12.95
2019-04-05T23:50:51.528Z,12.89
2019-04-05T23:53:23.784Z,12.90
2019-04-05T23:55:52.943Z,12.84
2019-04-05T23:58:22.111Z,12.85
